sensor_id;sensor_type;location;lat;lon;timestamp;P1;durP1;ratioP1;P2;durP2;ratioP2
50104;SDS011;47690;39.202;-77.198;2022-07-25T01:33:48;4.57;;;4.18;;
50104;SDS011;47690;39.202;-77.198;2022-07-25T01:36:19;5.80;;;5.05;;
50104;SDS011;47690;39.202;-77.198;2022-07-25T01:38:51;5.93;;;4.45;;
50104;SDS011;47690;39.202;-77.198;2022-07-25T01:41:22;4.85;;;4.35;;
50104;SDS011;47690;39.202;-77.198;2022-07-25T01:43:52;5.15;;;4.65;;
50104;SDS011;47690;39.202;-77.198;2022-07-25T01:46:23;4.88;;;4.43;;
50104;SDS011;47690;39.202;-77.198;2022-07-25T01:48:53;6.40;;;4.70;;
50104;SDS011;47690;39.202;-77.198;2022-07-25T01:51:24;4.85;;;4.45;;
50104;SDS011;47690;39.202;-77.198;2022-07-25T01:53:54;5.32;;;4.72;;
50104;SDS011;47690;39.202;-77.198;2022-07-25T01:56:32;5.03;;;4.53;;
50104;SDS011;47690;39.202;-77.198;2022-07-25T02:30:10;4.72;;;4.22;;
50104;SDS011;47690;39.202;-77.198;2022-07-25T02:32:44;5.85;;;5.25;;
50104;SDS011;47690;39.202;-77.198;2022-07-25T02:35:16;5.68;;;5.13;;
50104;SDS011;47690;39.202;-77.198;2022-07-25T02:38:08;5.68;;;5.18;;
50104;SDS011;47690;39.202;-77.198;2022-07-25T02:40:39;5.45;;;4.95;;
50104;SDS011;47690;39.202;-77.198;2022-07-25T02:43:12;5.90;;;5.30;;
50104;SDS011;47690;39.202;-77.198;2022-07-25T02:45:43;5.50;;;5.00;;
50104;SDS011;47690;39.202;-77.198;2022-07-25T02:48:16;5.43;;;4.93;;
50104;SDS011;47690;39.202;-77.198;2022-07-25T02:50:46;5.72;;;5.22;;
50104;SDS011;47690;39.202;-77.198;2022-07-25T02:53:20;6.00;;;5.50;;
50104;SDS011;47690;39.202;-77.198;2022-07-25T02:56:12;5.47;;;4.97;;
50104;SDS011;47690;39.202;-77.198;2022-07-25T02:58:46;6.22;;;5.13;;
50104;SDS011;47690;39.202;-77.198;2022-07-25T03:04:26;5.88;;;5.38;;
50104;SDS011;47690;39.202;-77.198;2022-07-25T04:07:27;5.43;;;4.85;;
50104;SDS011;47690;39.202;-77.198;2022-07-25T08:54:34;6.78;;;4.13;;
50104;SDS011;47690;39.202;-77.198;2022-07-25T08:57:04;4.90;;;4.18;;
50104;SDS011;47690;39.202;-77.198;2022-07-25T08:59:33;4.50;;;4.10;;
50104;SDS011;47690;39.202;-77.198;2022-07-25T09:04:59;5.13;;;4.13;;
50104;SDS011;47690;39.202;-77.198;2022-07-25T09:07:40;4.53;;;4.05;;
50104;SDS011;47690;39.202;-77.198;2022-07-25T13:23:22;3.83;;;3.42;;
50104;SDS011;47690;39.202;-77.198;2022-07-25T13:25:59;4.20;;;3.80;;
50104;SDS011;47690;39.202;-77.198;2022-07-25T16:04:34;4.30;;;3.85;;
50104;SDS011;47690;39.202;-77.198;2022-07-25T16:07:05;4.50;;;4.10;;
50104;SDS011;47690;39.202;-77.198;2022-07-25T16:09:34;4.60;;;4.10;;
50104;SDS011;47690;39.202;-77.198;2022-07-25T16:12:17;4.53;;;4.13;;
50104;SDS011;47690;39.202;-77.198;2022-07-25T16:14:56;4.55;;;4.13;;
50104;SDS011;47690;39.202;-77.198;2022-07-25T16:20:18;4.70;;;4.30;;
50104;SDS011;47690;39.202;-77.198;2022-07-25T16:22:49;4.68;;;4.22;;
50104;SDS011;47690;39.202;-77.198;2022-07-25T16:25:29;4.65;;;4.13;;
50104;SDS011;47690;39.202;-77.198;2022-07-25T16:27:58;4.72;;;4.22;;
50104;SDS011;47690;39.202;-77.198;2022-07-25T16:30:29;4.75;;;4.30;;
50104;SDS011;47690;39.202;-77.198;2022-07-25T17:04:43;4.00;;;3.67;;
50104;SDS011;47690;39.202;-77.198;2022-07-25T17:08:02;4.57;;;4.18;;
50104;SDS011;47690;39.202;-77.198;2022-07-25T17:10:32;4.40;;;4.00;;
50104;SDS011;47690;39.202;-77.198;2022-07-25T17:13:00;4.93;;;4.45;;
50104;SDS011;47690;39.202;-77.198;2022-07-25T17:15:29;4.85;;;4.38;;
50104;SDS011;47690;39.202;-77.198;2022-07-25T17:21:32;5.38;;;4.15;;
50104;SDS011;47690;39.202;-77.198;2022-07-25T17:24:01;4.95;;;4.45;;
50104;SDS011;47690;39.202;-77.198;2022-07-25T17:26:32;4.90;;;4.40;;
50104;SDS011;47690;39.202;-77.198;2022-07-25T18:02:52;3.65;;;3.35;;
50104;SDS011;47690;39.202;-77.198;2022-07-25T18:08:19;4.05;;;3.67;;
50104;SDS011;47690;39.202;-77.198;2022-07-25T18:11:03;4.60;;;4.15;;
50104;SDS011;47690;39.202;-77.198;2022-07-25T18:13:32;4.90;;;4.40;;
50104;SDS011;47690;39.202;-77.198;2022-07-25T22:27:12;3.72;;;2.30;;
50104;SDS011;47690;39.202;-77.198;2022-07-25T22:32:14;2.40;;;2.20;;
50104;SDS011;47690;39.202;-77.198;2022-07-25T22:35:07;2.47;;;2.28;;
50104;SDS011;47690;39.202;-77.198;2022-07-25T22:37:40;2.42;;;2.22;;
50104;SDS011;47690;39.202;-77.198;2022-07-25T22:40:12;2.50;;;2.30;;
50104;SDS011;47690;39.202;-77.198;2022-07-25T22:42:44;3.13;;;2.47;;
50104;SDS011;47690;39.202;-77.198;2022-07-25T22:45:14;3.53;;;2.38;;
50104;SDS011;47690;39.202;-77.198;2022-07-25T22:47:45;2.53;;;2.33;;
50104;SDS011;47690;39.202;-77.198;2022-07-25T22:50:16;2.70;;;2.50;;
50104;SDS011;47690;39.202;-77.198;2022-07-25T22:55:43;2.70;;;2.30;;
50104;SDS011;47690;39.202;-77.198;2022-07-25T22:58:14;4.65;;;2.55;;
50104;SDS011;47690;39.202;-77.198;2022-07-25T23:04:01;2.55;;;2.35;;
50104;SDS011;47690;39.202;-77.198;2022-07-25T23:06:30;5.70;;;2.40;;
